Time;durP1;ratioP1;P1;durP2;ratioP2;P2;SDS_P1;SDS_P2;PMS_P1;PMS_P2;Temp;Humidity;BMP_temperature;BMP_pressure;BME280_temperature;BME280_humidity;BME280_pressure;Samples;Min_cycle;Max_cycle;Signal;HPM_P1;HPM_P2
2021/10/29 00:01:02;;;;;;;;;;;;;;;;;;5054074;28;20074;-82
2021/10/29 00:03:28;;;;;;;;;;;;;;;;;;5071402;28;20377;-82
2021/10/29 00:05:53;;;;;;;;;;;;;;;;;;5070761;28;19913;-82
2021/10/29 00:08:18;;;;;;;;;;;;;;;;;;5071020;28;20003;-82
2021/10/29 00:10:44;;;;;;;;;;;;;;;;;;5070083;28;19944;-83
2021/10/29 00:13:09;;;;;;;;;;;;;;;;;;5072038;28;20007;-81
2021/10/29 00:15:35;;;;;;;;;;;;;;;;;;5058093;28;20277;-82
2021/10/29 00:18:00;;;;;;;;;;;;;;;;;;5075032;28;20402;-82
2021/10/29 00:20:25;;;;;;;;;;;;;;;;;;5058161;28;19922;-82
2021/10/29 00:22:51;;;;;;;;;;;;;;;;;;5074162;28;20290;-82
2021/10/29 00:25:16;;;;;;;;;;;;;;;;;;5057402;28;20007;-83
2021/10/29 00:27:42;;;;;;;;;;;;;;;;;;5074775;28;19917;-82
2021/10/29 00:30:08;;;;;;;;;;;;;;;;;;5075749;28;20010;-82
2021/10/29 00:32:33;;;;;;;;;;;;;;;;;;5061134;28;20676;-83
2021/10/29 00:34:59;;;;;;;;;;;;;;;;;;5061050;28;19916;-82
2021/10/29 00:37:24;;;;;;;;;;;;;;;;;;5074237;28;19928;-82
2021/10/29 00:39:49;;;;;;;;;;;;;;;;;;5073909;28;19965;-82
2021/10/29 00:42:15;;;;;;;;;;;;;;;;;;5057479;28;19924;-82
2021/10/29 00:44:40;;;;;;;;;;;;;;;;;;5089930;28;19949;-82
2021/10/29 00:47:07;;;;;;;;;;;;;;;;;;5058887;28;20003;-83
2021/10/29 00:49:33;;;;;;;;;;;;;;;;;;5064590;28;20074;-82
2021/10/29 00:51:58;;;;;;;;;;;;;;;;;;5056739;28;19916;-82
2021/10/29 00:54:24;;;;;;;;;;;;;;;;;;5094058;28;19969;-82
2021/10/29 00:56:49;;;;;;;;;;;;;;;;;;5073378;28;19952;-82
2021/10/29 00:59:17;;;;;;;;;;;;;;;;;;5040735;28;20005;-82
2021/10/29 01:01:42;;;;;;;;;;;;;;;;;;5057485;28;19912;-82
2021/10/29 01:04:08;;;;;;;;;;;;;;;;;;5040862;28;19938;-83
2021/10/29 01:06:33;;;;;;;;;;;;;;;;;;5057609;28;19995;-82
2021/10/29 01:08:59;;;;;;;;;;;;;;;;;;5039709;28;19917;-82
2021/10/29 01:11:26;;;;;;;;;;;;;;;;;;5040358;28;19921;-82
2021/10/29 01:13:51;;;;;;;;;;;;;;;;;;5057176;28;19919;-83
2021/10/29 01:16:16;;;;;;;;;;;;;;;;;;5040441;28;19912;-82
2021/10/29 01:18:42;;;;;;;;;;;;;;;;;;5040939;28;20026;-81
2021/10/29 01:21:08;;;;;;;;;;;;;;;;;;5056710;28;19913;-82
2021/10/29 01:23:33;;;;;;;;;;;;;;;;;;5056419;28;19913;-82
2021/10/29 01:26:09;;;;;;;;;;;;;;;;;;5039548;28;19973;-82
2021/10/29 01:28:34;;;;;;;;;;;;;;;;;;5039880;28;20398;-82
2021/10/29 01:31:01;;;;;;;;;;;;;;;;;;5039787;28;19937;-83
2021/10/29 01:33:26;;;;;;;;;;;;;;;;;;5040382;28;20057;-82
2021/10/29 01:35:52;;;;;;;;;;;;;;;;;;5040198;28;19960;-82
2021/10/29 01:38:17;;;;;;;;;;;;;;;;;;5088849;28;19912;-83
2021/10/29 01:40:43;;;;;;;;;;;;;;;;;;5056166;28;19935;-83
2021/10/29 01:43:08;;;;;;;;;;;;;;;;;;5073095;28;19917;-82
2021/10/29 01:45:34;;;;;;;;;;;;;;;;;;5087613;28;20570;-83
2021/10/29 01:47:59;;;;;;;;;;;;;;;;;;5039862;28;20515;-84
2021/10/29 01:50:25;;;;;;;;;;;;;;;;;;5056147;28;19916;-82
2021/10/29 01:52:50;;;;;;;;;;;;;;;;;;5039197;28;20289;-83
2021/10/29 01:55:15;;;;;;;;;;;;;;;;;;5039721;28;19920;-83
2021/10/29 01:57:41;;;;;;;;;;;;;;;;;;5039819;28;19912;-82
2021/10/29 02:00:06;;;;;;;;;;;;;;;;;;5056224;28;19912;-83
2021/10/29 02:02:32;;;;;;;;;;;;;;;;;;5056077;28;19999;-83
2021/10/29 02:04:57;;;;;;;;;;;;;;;;;;5039269;28;19913;-83
2021/10/29 02:07:23;;;;;;;;;;;;;;;;;;5055971;28;19920;-83
2021/10/29 02:09:48;;;;;;;;;;;;;;;;;;5055841;28;19986;-83
2021/10/29 02:12:13;;;;;;;;;;;;;;;;;;5055562;28;19917;-83
2021/10/29 02:14:39;;;;;;;;;;;;;;;;;;5055914;28;19923;-83
2021/10/29 02:17:04;;;;;;;;;;;;;;;;;;5056324;28;19939;-82
2021/10/29 02:19:29;;;;;;;;;;;;;;;;;;5046696;28;19990;-82
2021/10/29 02:21:55;;;;;;;;;;;;;;;;;;5055231;28;19912;-83
2021/10/29 02:24:20;;;;;;;;;;;;;;;;;;5039442;28;19934;-83
2021/10/29 02:26:45;;;;;;;;;;;;;;;;;;5038717;28;20019;-82
2021/10/29 02:29:11;;;;;;;;;;;;;;;;;;5071792;28;19920;-82
2021/10/29 02:31:39;;;;;;;;;;;;;;;;;;5039138;28;19920;-83
2021/10/29 02:34:04;;;;;;;;;;;;;;;;;;5056120;28;20282;-82
2021/10/29 02:36:30;;;;;;;;;;;;;;;;;;5056231;28;19919;-82
2021/10/29 02:38:55;;;;;;;;;;;;;;;;;;5071852;28;19924;-82
2021/10/29 02:41:20;;;;;;;;;;;;;;;;;;5072032;28;19920;-83
2021/10/29 02:43:46;;;;;;;;;;;;;;;;;;5088966;28;20005;-82
2021/10/29 02:46:13;;;;;;;;;;;;;;;;;;5055154;28;20436;-82
2021/10/29 02:48:38;;;;;;;;;;;;;;;;;;5071660;28;19938;-83
2021/10/29 02:51:03;;;;;;;;;;;;;;;;;;5055028;28;19913;-82
2021/10/29 02:53:32;;;;;;;;;;;;;;;;;;5071613;28;19939;-82
2021/10/29 02:55:58;;;;;;;;;;;;;;;;;;5071586;28;19912;-83
2021/10/29 02:58:26;;;;;;;;;;;;;;;;;;5071842;28;19912;-83
2021/10/29 03:00:52;;;;;;;;;;;;;;;;;;5055415;28;19913;-82
2021/10/29 03:03:17;;;;;;;;;;;;;;;;;;5071808;28;19951;-83
2021/10/29 03:05:43;;;;;;;;;;;;;;;;;;5054515;28;19912;-82
2021/10/29 03:08:08;;;;;;;;;;;;;;;;;;5071726;28;20003;-82
2021/10/29 03:10:34;;;;;;;;;;;;;;;;;;5071227;28;20005;-82
2021/10/29 03:12:59;;;;;;;;;;;;;;;;;;5054917;28;19925;-83
2021/10/29 03:15:24;;;;;;;;;;;;;;;;;;5038314;28;20367;-81
2021/10/29 03:17:50;;;;;;;;;;;;;;;;;;5054839;28;19920;-82
2021/10/29 03:20:15;;;;;;;;;;;;;;;;;;5054628;28;19923;-83
2021/10/29 03:22:40;;;;;;;;;;;;;;;;;;5037697;28;19982;-82
2021/10/29 03:25:06;;;;;;;;;;;;;;;;;;5054746;28;19954;-82
2021/10/29 03:27:33;;;;;;;;;;;;;;;;;;5071409;28;20370;-83
2021/10/29 03:29:58;;;;;;;;;;;;;;;;;;5054308;28;19912;-82
2021/10/29 03:32:24;;;;;;;;;;;;;;;;;;5054796;28;19923;-82
2021/10/29 03:34:50;;;;;;;;;;;;;;;;;;5054112;28;19916;-82
2021/10/29 03:42:50;;;;;;;;;;;;;;;;;;5076104;28;20370;-82
2021/10/29 03:45:18;;;;;;;;;;;;;;;;;;5072316;28;19920;-82
2021/10/29 03:47:51;;;;;;;;;;;;;;;;;;5042913;28;19913;-82
2021/10/29 03:52:54;;;;;;;;;;;;;;;;;;5054597;28;19920;-82
2021/10/29 03:55:20;;;;;;;;;;;;;;;;;;5055222;28;20285;-82
2021/10/29 03:57:45;;;;;;;;;;;;;;;;;;5054299;28;20012;-82
2021/10/29 04:00:11;;;;;;;;;;;;;;;;;;5054453;28;19935;-82
2021/10/29 04:02:36;;;;;;;;;;;;;;;;;;5053879;28;20058;-83
2021/10/29 04:05:01;;;;;;;;;;;;;;;;;;5054173;28;20007;-82
2021/10/29 04:07:27;;;;;;;;;;;;;;;;;;5071779;28;19912;-82
2021/10/29 04:09:53;;;;;;;;;;;;;;;;;;5074168;28;19916;-82
2021/10/29 04:12:18;;;;;;;;;;;;;;;;;;5057107;28;19958;-82
2021/10/29 04:14:43;;;;;;;;;;;;;;;;;;5074086;28;19923;-82
2021/10/29 04:17:09;;;;;;;;;;;;;;;;;;5056678;28;19916;-82
2021/10/29 04:19:34;;;;;;;;;;;;;;;;;;5074136;28;19916;-81
2021/10/29 04:22:00;;;;;;;;;;;;;;;;;;5056897;28;20318;-83
2021/10/29 04:24:26;;;;;;;;;;;;;;;;;;5074303;28;20002;-82
2021/10/29 04:26:51;;;;;;;;;;;;;;;;;;5074092;28;19912;-82
2021/10/29 04:29:18;;;;;;;;;;;;;;;;;;5056768;28;20327;-82
2021/10/29 04:31:50;;;;;;;;;;;;;;;;;;5073988;28;20014;-82
2021/10/29 04:34:16;;;;;;;;;;;;;;;;;;5074921;28;19912;-82
2021/10/29 04:36:42;;;;;;;;;;;;;;;;;;5074264;28;20332;-82
2021/10/29 04:39:14;;;;;;;;;;;;;;;;;;5073632;28;19916;-82
2021/10/29 04:41:40;;;;;;;;;;;;;;;;;;5074297;28;19916;-82
2021/10/29 04:44:05;;;;;;;;;;;;;;;;;;5057065;28;19916;-82
2021/10/29 04:46:31;;;;;;;;;;;;;;;;;;5059777;28;19912;-83
2021/10/29 04:48:56;;;;;;;;;;;;;;;;;;5053613;28;19916;-82
2021/10/29 04:51:22;;;;;;;;;;;;;;;;;;5054081;28;19966;-82
2021/10/29 04:53:47;;;;;;;;;;;;;;;;;;5037103;28;20003;-82
2021/10/29 04:56:13;;;;;;;;;;;;;;;;;;5053621;28;19919;-82
2021/10/29 04:58:38;;;;;;;;;;;;;;;;;;5053595;28;19912;-82
2021/10/29 05:01:03;;;;;;;;;;;;;;;;;;5055777;28;19959;-82
2021/10/29 05:03:29;;;;;;;;;;;;;;;;;;5057328;28;19919;-82
2021/10/29 05:05:54;;;;;;;;;;;;;;;;;;5057457;28;19916;-82
2021/10/29 05:08:19;;;;;;;;;;;;;;;;;;5074087;28;19916;-82
2021/10/29 05:10:45;;;;;;;;;;;;;;;;;;5040209;28;20282;-82
2021/10/29 05:13:10;;;;;;;;;;;;;;;;;;5060119;28;19922;-82
2021/10/29 05:15:36;;;;;;;;;;;;;;;;;;5077388;28;19994;-82
2021/10/29 05:18:02;;;;;;;;;;;;;;;;;;5077137;28;19919;-82
2021/10/29 05:20:28;;;;;;;;;;;;;;;;;;5093857;28;19912;-82
2021/10/29 05:22:53;;;;;;;;;;;;;;;;;;5076715;28;19912;-82
2021/10/29 05:25:18;;;;;;;;;;;;;;;;;;5060195;28;20606;-82
2021/10/29 05:27:43;;;;;;;;;;;;;;;;;;5076964;28;19962;-82
2021/10/29 05:30:09;;;;;;;;;;;;;;;;;;5093247;28;20320;-82
2021/10/29 05:32:35;;;;;;;;;;;;;;;;;;5076921;28;19927;-82
2021/10/29 05:35:01;;;;;;;;;;;;;;;;;;5076923;28;19916;-82
2021/10/29 05:37:28;;;;;;;;;;;;;;;;;;5077117;28;19962;-82
2021/10/29 05:39:53;;;;;;;;;;;;;;;;;;5093453;28;19967;-83
2021/10/29 05:42:19;;;;;;;;;;;;;;;;;;5076386;28;20377;-82
2021/10/29 05:44:44;;;;;;;;;;;;;;;;;;5076245;28;19927;-82
2021/10/29 05:47:10;;;;;;;;;;;;;;;;;;5056466;28;19965;-82
2021/10/29 05:49:35;;;;;;;;;;;;;;;;;;5056418;28;19913;-82
2021/10/29 05:52:00;;;;;;;;;;;;;;;;;;5072648;28;19916;-82
2021/10/29 05:56:57;;;;;;;;;;;;;;;;;;5056630;28;20397;-83
2021/10/29 05:59:23;;;;;;;;;;;;;;;;;;5072835;28;19977;-83
2021/10/29 06:01:50;;;;;;;;;;;;;;;;;;5073093;28;19948;-83
2021/10/29 06:04:26;;;;;;;;;;;;;;;;;;5069140;28;19917;-83
2021/10/29 06:06:52;;;;;;;;;;;;;;;;;;5057941;28;20007;-85
2021/10/29 06:09:18;;;;;;;;;;;;;;;;;;5058962;28;19920;-84
2021/10/29 06:11:43;;;;;;;;;;;;;;;;;;5055428;28;19920;-80
2021/10/29 06:14:09;;;;;;;;;;;;;;;;;;5062791;28;19920;-82
2021/10/29 06:16:34;;;;;;;;;;;;;;;;;;5054295;28;20421;-82
2021/10/29 06:19:01;;;;;;;;;;;;;;;;;;5053280;28;19961;-82
2021/10/29 06:21:42;;;;;;;;;;;;;;;;;;5083003;28;19920;-83
2021/10/29 06:24:16;;;;;;;;;;;;;;;;;;5046989;28;20015;-84
2021/10/29 06:26:47;;;;;;;;;;;;;;;;;;5076791;28;19934;-80
2021/10/29 06:29:12;;;;;;;;;;;;;;;;;;5076365;28;19912;-80
2021/10/29 06:31:38;;;;;;;;;;;;;;;;;;5092307;28;19918;-81
2021/10/29 06:34:03;;;;;;;;;;;;;;;;;;5075165;28;19912;-81
2021/10/29 06:36:29;;;;;;;;;;;;;;;;;;5058409;28;19919;-82
2021/10/29 06:38:54;;;;;;;;;;;;;;;;;;5056764;28;19920;-81
2021/10/29 06:41:19;;;;;;;;;;;;;;;;;;5070256;28;19924;-82
2021/10/29 06:44:02;;;;;;;;;;;;;;;;;;5080495;28;20285;-82
2021/10/29 06:46:50;;;;;;;;;;;;;;;;;;5045484;28;20045;-82
2021/10/29 06:49:19;;;;;;;;;;;;;;;;;;5058821;28;19950;-81
2021/10/29 07:40:22;;;;;;;;;;;;;;;;;;5075992;28;19920;-80
2021/10/29 07:43:02;;;;;;;;;;;;;;;;;;5073438;28;19920;-80
2021/10/29 07:45:30;;;;;;;;;;;;;;;;;;5070400;28;20271;-81
2021/10/29 07:47:56;;;;;;;;;;;;;;;;;;5081465;28;20273;-83
2021/10/29 07:50:21;;;;;;;;;;;;;;;;;;5057353;28;20341;-80
2021/10/29 07:52:47;;;;;;;;;;;;;;;;;;5073834;28;19916;-80
2021/10/29 07:55:13;;;;;;;;;;;;;;;;;;5074099;28;19912;-80
2021/10/29 07:57:39;;;;;;;;;;;;;;;;;;5069443;28;19928;-80
2021/10/29 08:00:05;;;;;;;;;;;;;;;;;;5071417;28;19913;-80
2021/10/29 08:02:31;;;;;;;;;;;;;;;;;;5057778;28;19928;-80
2021/10/29 08:04:57;;;;;;;;;;;;;;;;;;5037310;28;19920;-81
2021/10/29 08:07:22;;;;;;;;;;;;;;;;;;5037584;28;20415;-82
2021/10/29 08:09:48;;;;;;;;;;;;;;;;;;5053553;28;19917;-81
2021/10/29 08:12:15;;;;;;;;;;;;;;;;;;5070780;28;20290;-80
2021/10/29 08:14:41;;;;;;;;;;;;;;;;;;5069499;28;19913;-81
2021/10/29 08:17:06;;;;;;;;;;;;;;;;;;5043047;28;19927;-84
2021/10/29 08:19:33;;;;;;;;;;;;;;;;;;5064783;28;19923;-84
2021/10/29 08:22:02;;;;;;;;;;;;;;;;;;5054322;28;19952;-85
2021/10/29 08:24:27;;;;;;;;;;;;;;;;;;5056364;28;19920;-85
2021/10/29 08:26:53;;;;;;;;;;;;;;;;;;5052268;28;19923;-81
2021/10/29 08:29:20;;;;;;;;;;;;;;;;;;5064767;28;19916;-82
2021/10/29 08:31:46;;;;;;;;;;;;;;;;;;5069583;28;20417;-81
2021/10/29 08:34:12;;;;;;;;;;;;;;;;;;5111690;28;19949;-81
2021/10/29 08:36:39;;;;;;;;;;;;;;;;;;5097977;28;19911;-81
2021/10/29 08:39:06;;;;;;;;;;;;;;;;;;5097947;28;19978;-81
2021/10/29 08:41:32;;;;;;;;;;;;;;;;;;5097366;28;19919;-81
2021/10/29 08:43:57;;;;;;;;;;;;;;;;;;5098228;28;19912;-81
2021/10/29 08:46:23;;;;;;;;;;;;;;;;;;5083971;28;19926;-81
2021/10/29 08:48:48;;;;;;;;;;;;;;;;;;5077183;28;19947;-82
2021/10/29 08:51:14;;;;;;;;;;;;;;;;;;5077663;28;19919;-81
2021/10/29 08:53:39;;;;;;;;;;;;;;;;;;5077053;28;19939;-82
2021/10/29 08:56:06;;;;;;;;;;;;;;;;;;5060556;28;19942;-81
2021/10/29 08:58:35;;;;;;;;;;;;;;;;;;5060423;28;19918;-82
2021/10/29 09:01:04;;;;;;;;;;;;;;;;;;5077694;28;19961;-82
2021/10/29 09:03:41;;;;;;;;;;;;;;;;;;5077747;28;19962;-81
2021/10/29 09:33:51;;;;;;;;;;;;;;;;;;5075197;28;19943;-82
2021/10/29 09:36:43;;;;;;;;;;;;;;;;;;5089115;28;20350;-82
2021/10/29 09:39:09;;;;;;;;;;;;;;;;;;5084745;28;20414;-81
2021/10/29 09:41:35;;;;;;;;;;;;;;;;;;5076310;28;20015;-82
2021/10/29 09:44:01;;;;;;;;;;;;;;;;;;5055782;28;20279;-83
2021/10/29 09:46:36;;;;;;;;;;;;;;;;;;5071321;28;19916;-82
2021/10/29 09:49:21;;;;;;;;;;;;;;;;;;5099154;28;19916;-83
2021/10/29 09:51:55;;;;;;;;;;;;;;;;;;5083568;28;19916;-81
2021/10/29 09:54:31;;;;;;;;;;;;;;;;;;5073069;28;20378;-82
2021/10/29 09:56:57;;;;;;;;;;;;;;;;;;5058548;28;19924;-82
2021/10/29 09:59:23;;;;;;;;;;;;;;;;;;5070395;28;20262;-82
2021/10/29 10:01:48;;;;;;;;;;;;;;;;;;5072668;28;20389;-82
2021/10/29 10:04:14;;;;;;;;;;;;;;;;;;5056728;28;19916;-82
2021/10/29 10:06:40;;;;;;;;;;;;;;;;;;5075241;28;19967;-82
2021/10/29 10:09:08;;;;;;;;;;;;;;;;;;5063857;28;19924;-82
2021/10/29 10:11:34;;;;;;;;;;;;;;;;;;5039290;28;19921;-82
2021/10/29 10:14:01;;;;;;;;;;;;;;;;;;5073592;28;19916;-82
2021/10/29 10:16:30;;;;;;;;;;;;;;;;;;5092494;28;20396;-83
2021/10/29 10:18:55;;;;;;;;;;;;;;;;;;5073745;28;20098;-83
2021/10/29 10:21:24;;;;;;;;;;;;;;;;;;5071611;28;20386;-82
2021/10/29 10:23:52;;;;;;;;;;;;;;;;;;5063336;28;19927;-82
2021/10/29 10:45:17;;;;;;;;;;;;;;;;;;5073095;28;19919;-81
2021/10/29 10:47:43;;;;;;;;;;;;;;;;;;5072226;28;19935;-81
2021/10/29 10:50:16;;;;;;;;;;;;;;;;;;5071585;28;19913;-81
2021/10/29 10:53:03;;;;;;;;;;;;;;;;;;5041206;28;20011;-81
2021/10/29 10:55:35;;;;;;;;;;;;;;;;;;5071042;28;19917;-86
2021/10/29 10:58:17;;;;;;;;;;;;;;;;;;5041801;28;19927;-86
2021/10/29 11:00:43;;;;;;;;;;;;;;;;;;5058532;28;19923;-84
2021/10/29 11:06:38;;;;;;;;;;;;;;;;;;5021594;28;20278;-86
2021/10/29 11:12:06;;;;;;;;;;;;;;;;;;5002234;28;20021;-85
2021/10/29 11:14:33;;;;;;;;;;;;;;;;;;5056828;28;19912;-84
2021/10/29 11:16:59;;;;;;;;;;;;;;;;;;5048803;28;19917;-85
2021/10/29 11:19:34;;;;;;;;;;;;;;;;;;5054228;28;19916;-85
2021/10/29 11:22:00;;;;;;;;;;;;;;;;;;5072579;28;19912;-85
2021/10/29 11:24:37;;;;;;;;;;;;;;;;;;5038033;28;20043;-84
2021/10/29 11:27:21;;;;;;;;;;;;;;;;;;5048602;28;20270;-84
2021/10/29 11:29:46;;;;;;;;;;;;;;;;;;5038136;28;19912;-85
2021/10/29 11:32:11;;;;;;;;;;;;;;;;;;5071298;28;19912;-86
2021/10/29 11:34:37;;;;;;;;;;;;;;;;;;5054661;28;20362;-81
2021/10/29 11:37:02;;;;;;;;;;;;;;;;;;5037825;28;19912;-82
2021/10/29 11:39:27;;;;;;;;;;;;;;;;;;5054123;28;19922;-79
2021/10/29 11:41:53;;;;;;;;;;;;;;;;;;5074897;28;20394;-79
2021/10/29 11:44:19;;;;;;;;;;;;;;;;;;5054234;28;19912;-79
2021/10/29 11:46:45;;;;;;;;;;;;;;;;;;5071101;28;20373;-78
2021/10/29 11:49:14;;;;;;;;;;;;;;;;;;5063228;28;19999;-78
2021/10/29 11:51:40;;;;;;;;;;;;;;;;;;5054004;28;19912;-79
2021/10/29 12:07:21;;;;;;;;;;;;;;;;;;5070851;28;19913;-78
2021/10/29 12:10:02;;;;;;;;;;;;;;;;;;5084444;28;19923;-79
2021/10/29 12:12:29;;;;;;;;;;;;;;;;;;5074757;28;19935;-79
2021/10/29 12:14:55;;;;;;;;;;;;;;;;;;5091966;28;20630;-78
2021/10/29 12:17:24;;;;;;;;;;;;;;;;;;5078213;28;19916;-78
2021/10/29 12:19:53;;;;;;;;;;;;;;;;;;5094911;28;19918;-78
2021/10/29 12:22:39;;;;;;;;;;;;;;;;;;5089540;28;19920;-78
2021/10/29 12:27:47;;;;;;;;;;;;;;;;;;5074779;28;19951;-78
2021/10/29 12:30:33;;;;;;;;;;;;;;;;;;5058120;28;19924;-78
2021/10/29 12:38:54;;;;;;;;;;;;;;;;;;5092973;28;19924;-78
2021/10/29 13:03:02;;;;;;;;;;;;;;;;;;5087301;28;19966;-79
2021/10/29 13:05:27;;;;;;;;;;;;;;;;;;5063581;28;19920;-78
2021/10/29 13:07:52;;;;;;;;;;;;;;;;;;5093759;28;19916;-79
2021/10/29 13:10:18;;;;;;;;;;;;;;;;;;5093507;28;19912;-78
2021/10/29 13:13:09;;;;;;;;;;;;;;;;;;5077263;28;19920;-79
2021/10/29 13:15:34;;;;;;;;;;;;;;;;;;5073779;28;19916;-79
2021/10/29 13:18:05;;;;;;;;;;;;;;;;;;5040512;28;20251;-79
2021/10/29 13:52:56;;;;;;;;;;;;;;;;;;5057662;28;19912;-81
2021/10/29 14:30:06;;;;;;;;;;;;;;;;;;5072251;28;19923;-81
2021/10/29 14:35:01;;;;;;;;;;;;;;;;;;5077864;28;19916;-81
2021/10/29 14:45:00;;;;;;;;;;;;;;;;;;5083457;28;19952;-80
2021/10/29 14:48:00;;;;;;;;;;;;;;;;;;5056391;28;20024;-80
2021/10/29 14:50:25;;;;;;;;;;;;;;;;;;5057129;28;20010;-80
2021/10/29 15:06:03;;;;;;;;;;;;;;;;;;5072616;28;19924;-80
2021/10/29 15:45:42;;;;;;;;;;;;;;;;;;5068446;28;19916;-81
2021/10/29 15:48:10;;;;;;;;;;;;;;;;;;5074434;28;20070;-81
2021/10/29 15:50:36;;;;;;;;;;;;;;;;;;5057609;28;20021;-81
2021/10/29 15:53:02;;;;;;;;;;;;;;;;;;5090719;28;20279;-82
2021/10/29 15:55:43;;;;;;;;;;;;;;;;;;5053072;28;19916;-83
2021/10/29 16:03:31;;;;;;;;;;;;;;;;;;5070456;28;19913;-81
2021/10/29 16:17:10;;;;;;;;;;;;;;;;;;5091237;28;19912;-80
2021/10/29 16:19:36;;;;;;;;;;;;;;;;;;5074874;28;19916;-80
2021/10/29 16:22:06;;;;;;;;;;;;;;;;;;5056696;28;20371;-80
2021/10/29 16:24:32;;;;;;;;;;;;;;;;;;5070190;28;19924;-80
2021/10/29 16:26:58;;;;;;;;;;;;;;;;;;5070309;28;20328;-80
2021/10/29 16:29:25;;;;;;;;;;;;;;;;;;5062235;28;19916;-80
2021/10/29 16:31:50;;;;;;;;;;;;;;;;;;5085438;28;19921;-80
2021/10/29 16:34:16;;;;;;;;;;;;;;;;;;5070352;28;20011;-80
2021/10/29 16:36:42;;;;;;;;;;;;;;;;;;5053492;28;19959;-80
2021/10/29 16:39:07;;;;;;;;;;;;;;;;;;5086363;28;20341;-80
2021/10/29 16:41:32;;;;;;;;;;;;;;;;;;5070026;28;19920;-80
2021/10/29 16:43:58;;;;;;;;;;;;;;;;;;5072422;28;20406;-80
2021/10/29 16:46:23;;;;;;;;;;;;;;;;;;5067810;28;20025;-80
2021/10/29 16:48:48;;;;;;;;;;;;;;;;;;5036732;28;19999;-80
2021/10/29 16:51:15;;;;;;;;;;;;;;;;;;5070127;28;19919;-81
2021/10/29 16:53:40;;;;;;;;;;;;;;;;;;5053542;28;19917;-80
2021/10/29 16:56:06;;;;;;;;;;;;;;;;;;5055716;28;20439;-80
2021/10/29 16:58:31;;;;;;;;;;;;;;;;;;5040816;28;20274;-80
2021/10/29 17:00:57;;;;;;;;;;;;;;;;;;5058164;28;19927;-80
2021/10/29 17:03:24;;;;;;;;;;;;;;;;;;5074952;28;19912;-80
2021/10/29 17:05:50;;;;;;;;;;;;;;;;;;5057334;28;19919;-80
2021/10/29 17:08:16;;;;;;;;;;;;;;;;;;5057037;28;20511;-81
2021/10/29 17:10:47;;;;;;;;;;;;;;;;;;5056630;28;20011;-81
2021/10/29 17:13:13;;;;;;;;;;;;;;;;;;5077498;28;19916;-80
2021/10/29 17:15:38;;;;;;;;;;;;;;;;;;5060386;28;20088;-81
2021/10/29 17:18:04;;;;;;;;;;;;;;;;;;5076887;28;19919;-81
2021/10/29 17:20:29;;;;;;;;;;;;;;;;;;5076571;28;19912;-81
2021/10/29 17:22:54;;;;;;;;;;;;;;;;;;5076630;28;19923;-81
2021/10/29 17:25:20;;;;;;;;;;;;;;;;;;5092955;28;19916;-81
2021/10/29 17:27:45;;;;;;;;;;;;;;;;;;5076239;28;19928;-81
2021/10/29 17:30:12;;;;;;;;;;;;;;;;;;5097290;28;19916;-81
2021/10/29 17:32:39;;;;;;;;;;;;;;;;;;5097227;28;19923;-81
2021/10/29 17:35:04;;;;;;;;;;;;;;;;;;5096526;28;19912;-81
2021/10/29 17:37:32;;;;;;;;;;;;;;;;;;5097161;28;19961;-81
2021/10/29 17:39:58;;;;;;;;;;;;;;;;;;5080051;28;19916;-81
2021/10/29 17:42:24;;;;;;;;;;;;;;;;;;5046676;28;20402;-81
2021/10/29 17:44:49;;;;;;;;;;;;;;;;;;5056618;28;20326;-80
2021/10/29 17:47:14;;;;;;;;;;;;;;;;;;5073174;28;20370;-81
2021/10/29 17:49:40;;;;;;;;;;;;;;;;;;5056227;28;20023;-81
2021/10/29 17:52:06;;;;;;;;;;;;;;;;;;5056159;28;20018;-81
2021/10/29 17:54:36;;;;;;;;;;;;;;;;;;5056720;28;19978;-81
2021/10/29 17:57:02;;;;;;;;;;;;;;;;;;5055858;28;19920;-81
2021/10/29 17:59:28;;;;;;;;;;;;;;;;;;5072736;28;20461;-83
2021/10/29 18:01:53;;;;;;;;;;;;;;;;;;5072995;28;20004;-84
2021/10/29 18:04:18;;;;;;;;;;;;;;;;;;5072576;28;20293;-83
2021/10/29 18:06:43;;;;;;;;;;;;;;;;;;5072282;28;19912;-84
2021/10/29 18:09:09;;;;;;;;;;;;;;;;;;5062050;28;20358;-83
2021/10/29 18:11:36;;;;;;;;;;;;;;;;;;5072422;28;19975;-84
2021/10/29 18:14:02;;;;;;;;;;;;;;;;;;5051952;28;19957;-84
2021/10/29 18:16:30;;;;;;;;;;;;;;;;;;5056569;28;19958;-84
2021/10/29 18:18:57;;;;;;;;;;;;;;;;;;5040102;28;19931;-84
2021/10/29 18:21:22;;;;;;;;;;;;;;;;;;5052716;28;19923;-84
2021/10/29 18:23:52;;;;;;;;;;;;;;;;;;5038943;28;19995;-85
2021/10/29 18:26:19;;;;;;;;;;;;;;;;;;5039903;28;20365;-84
2021/10/29 18:28:45;;;;;;;;;;;;;;;;;;5072217;28;19991;-84
2021/10/29 18:31:12;;;;;;;;;;;;;;;;;;5039223;28;20013;-85
2021/10/29 18:33:37;;;;;;;;;;;;;;;;;;5072120;28;20409;-84
2021/10/29 18:36:02;;;;;;;;;;;;;;;;;;5038577;28;19912;-85
2021/10/29 18:38:28;;;;;;;;;;;;;;;;;;5038859;28;19912;-85
2021/10/29 18:40:54;;;;;;;;;;;;;;;;;;5055008;28;20332;-85
2021/10/29 18:43:19;;;;;;;;;;;;;;;;;;5055314;28;19952;-85
2021/10/29 18:45:45;;;;;;;;;;;;;;;;;;5064954;28;19939;-84
2021/10/29 18:48:10;;;;;;;;;;;;;;;;;;5054832;28;19932;-85
2021/10/29 18:50:35;;;;;;;;;;;;;;;;;;5038601;28;19966;-85
2021/10/29 18:53:01;;;;;;;;;;;;;;;;;;5038329;28;19985;-85
2021/10/29 18:55:26;;;;;;;;;;;;;;;;;;5038628;28;19912;-85
2021/10/29 18:57:51;;;;;;;;;;;;;;;;;;5038929;28;19963;-85
2021/10/29 19:00:17;;;;;;;;;;;;;;;;;;5055403;28;20376;-85
2021/10/29 19:02:42;;;;;;;;;;;;;;;;;;5064538;28;19975;-85
2021/10/29 19:05:07;;;;;;;;;;;;;;;;;;5055256;28;19916;-84
2021/10/29 19:07:33;;;;;;;;;;;;;;;;;;5054993;28;19920;-85
2021/10/29 19:09:58;;;;;;;;;;;;;;;;;;5054886;28;19931;-85
2021/10/29 19:12:26;;;;;;;;;;;;;;;;;;5055024;28;20282;-86
2021/10/29 19:14:52;;;;;;;;;;;;;;;;;;5066604;28;19927;-85
2021/10/29 19:17:19;;;;;;;;;;;;;;;;;;5071725;28;19916;-86
2021/10/29 19:19:45;;;;;;;;;;;;;;;;;;5053949;28;19913;-85
2021/10/29 19:22:10;;;;;;;;;;;;;;;;;;5054196;28;19928;-86
2021/10/29 19:24:36;;;;;;;;;;;;;;;;;;5071799;28;19916;-86
2021/10/29 19:27:01;;;;;;;;;;;;;;;;;;5054750;28;20402;-87
2021/10/29 19:29:26;;;;;;;;;;;;;;;;;;5071648;28;20358;-87
2021/10/29 19:31:53;;;;;;;;;;;;;;;;;;5054976;28;19962;-87
2021/10/29 19:34:25;;;;;;;;;;;;;;;;;;5054788;28;19913;-86
2021/10/29 19:37:02;;;;;;;;;;;;;;;;;;5071717;28;19919;-86
2021/10/29 19:42:02;;;;;;;;;;;;;;;;;;5073695;28;19948;-86
2021/10/29 19:44:28;;;;;;;;;;;;;;;;;;5058405;28;19970;-87
2021/10/29 19:46:56;;;;;;;;;;;;;;;;;;5050470;28;19916;-87
2021/10/29 19:49:23;;;;;;;;;;;;;;;;;;5038339;28;19912;-87
2021/10/29 19:51:48;;;;;;;;;;;;;;;;;;5064465;28;19917;-87
2021/10/29 19:54:18;;;;;;;;;;;;;;;;;;5038254;28;19913;-87
2021/10/29 19:56:46;;;;;;;;;;;;;;;;;;5055647;28;19935;-87
2021/10/29 19:59:12;;;;;;;;;;;;;;;;;;5038319;28;19912;-87
2021/10/29 20:01:37;;;;;;;;;;;;;;;;;;5037942;28;19916;-87
2021/10/29 20:04:04;;;;;;;;;;;;;;;;;;5038235;28;20367;-87
2021/10/29 20:06:29;;;;;;;;;;;;;;;;;;5038059;28;19913;-87
2021/10/29 20:08:54;;;;;;;;;;;;;;;;;;5063565;28;20015;-87
2021/10/29 20:11:20;;;;;;;;;;;;;;;;;;5037795;28;19920;-87
2021/10/29 20:13:46;;;;;;;;;;;;;;;;;;5058885;28;19940;-86
2021/10/29 20:16:13;;;;;;;;;;;;;;;;;;5049273;28;19923;-87
2021/10/29 20:18:46;;;;;;;;;;;;;;;;;;5057994;28;19916;-87
2021/10/29 20:21:13;;;;;;;;;;;;;;;;;;5058239;28;19916;-86
2021/10/29 20:23:39;;;;;;;;;;;;;;;;;;5074262;28;19912;-86
2021/10/29 20:26:04;;;;;;;;;;;;;;;;;;5046512;28;19913;-87
2021/10/29 20:28:29;;;;;;;;;;;;;;;;;;5044207;28;20366;-88
2021/10/29 20:30:57;;;;;;;;;;;;;;;;;;5059407;28;19916;-88
2021/10/29 20:33:24;;;;;;;;;;;;;;;;;;5062527;28;19920;-86
2021/10/29 20:35:50;;;;;;;;;;;;;;;;;;5078711;28;19912;-87
2021/10/29 20:38:16;;;;;;;;;;;;;;;;;;5059665;28;19955;-86
2021/10/29 20:40:45;;;;;;;;;;;;;;;;;;5056442;28;19963;-88
2021/10/29 20:43:11;;;;;;;;;;;;;;;;;;5058182;28;19931;-87
2021/10/29 20:45:38;;;;;;;;;;;;;;;;;;5069172;28;19964;-86
2021/10/29 20:48:03;;;;;;;;;;;;;;;;;;5062618;28;19920;-87
2021/10/29 20:50:29;;;;;;;;;;;;;;;;;;5069981;28;19965;-85
2021/10/29 20:52:54;;;;;;;;;;;;;;;;;;5073811;28;20494;-84
2021/10/29 20:55:20;;;;;;;;;;;;;;;;;;5056111;28;19919;-84
2021/10/29 20:57:45;;;;;;;;;;;;;;;;;;5039909;28;19912;-85
2021/10/29 21:00:11;;;;;;;;;;;;;;;;;;5040892;28;19916;-83
2021/10/29 21:02:36;;;;;;;;;;;;;;;;;;5066279;28;19935;-84
2021/10/29 21:05:02;;;;;;;;;;;;;;;;;;5059727;28;19912;-84
2021/10/29 21:07:27;;;;;;;;;;;;;;;;;;5056924;28;19917;-84
2021/10/29 21:09:53;;;;;;;;;;;;;;;;;;5040670;28;19916;-83
2021/10/29 21:12:19;;;;;;;;;;;;;;;;;;5040362;28;19916;-84
2021/10/29 21:14:44;;;;;;;;;;;;;;;;;;5053122;28;20324;-84
2021/10/29 21:17:09;;;;;;;;;;;;;;;;;;5057414;28;20014;-84
2021/10/29 21:19:35;;;;;;;;;;;;;;;;;;5064546;28;19917;-84
2021/10/29 21:22:02;;;;;;;;;;;;;;;;;;5056698;28;19925;-84
2021/10/29 21:24:27;;;;;;;;;;;;;;;;;;5040576;28;19962;-84
2021/10/29 21:26:53;;;;;;;;;;;;;;;;;;5040150;28;20316;-84
2021/10/29 21:29:18;;;;;;;;;;;;;;;;;;5040294;28;19916;-84
2021/10/29 21:31:44;;;;;;;;;;;;;;;;;;5051107;28;19999;-84
2021/10/29 21:34:09;;;;;;;;;;;;;;;;;;5059747;28;19920;-84
2021/10/29 21:36:35;;;;;;;;;;;;;;;;;;5055052;28;19973;-85
2021/10/29 21:39:00;;;;;;;;;;;;;;;;;;5039825;28;19912;-84
2021/10/29 21:41:28;;;;;;;;;;;;;;;;;;5056171;28;19924;-85
2021/10/29 21:43:53;;;;;;;;;;;;;;;;;;5056322;28;20367;-84
2021/10/29 21:46:18;;;;;;;;;;;;;;;;;;5056768;28;19934;-83